Time;durP1;ratioP1;P1;durP2;ratioP2;P2;SDS_P1;SDS_P2;PMS_P1;PMS_P2;Temp;Humidity;BMP_temperature;BMP_pressure;BME280_temperature;BME280_humidity;BME280_pressure;Samples;Min_cycle;Max_cycle;Signal;HPM_P1;HPM_P2
2020/03/10 00:01:15;;;;;;;1.53;1.43;;;;;;;19.80;39.49;100687.72;;;;-47
2020/03/10 00:04:15;;;;;;;1.72;1.55;;;;;;;19.78;39.49;100681.09;;;;-48
2020/03/10 00:07:14;;;;;;;1.57;1.40;;;;;;;19.76;39.50;100664.08;;;;-47
2020/03/10 00:10:14;;;;;;;1.69;1.57;;;;;;;19.74;39.50;100650.97;;;;-47
2020/03/10 00:13:15;;;;;;;1.97;1.50;;;;;;;19.72;39.48;100633.16;;;;-46
2020/03/10 00:16:15;;;;;;;1.61;1.49;;;;;;;19.71;39.50;100615.88;;;;-47
2020/03/10 00:19:15;;;;;;;2.03;1.60;;;;;;;19.70;39.48;100611.58;;;;-47
2020/03/10 00:22:15;;;;;;;1.85;1.49;;;;;;;19.68;39.45;100619.36;;;;-47
2020/03/10 00:25:14;;;;;;;1.85;1.50;;;;;;;19.67;39.55;100627.36;;;;-47
2020/03/10 00:28:14;;;;;;;1.50;1.40;;;;;;;19.65;39.50;100639.16;;;;-46
2020/03/10 00:31:14;;;;;;;1.43;1.33;;;;;;;19.64;39.48;100640.66;;;;-47
2020/03/10 00:34:15;;;;;;;1.84;1.50;;;;;;;19.63;39.57;100644.88;;;;-47
2020/03/10 00:37:15;;;;;;;1.67;1.54;;;;;;;19.62;39.58;100656.78;;;;-47
2020/03/10 00:40:15;;;;;;;1.97;1.41;;;;;;;19.60;39.54;100672.20;;;;-47
2020/03/10 00:43:15;;;;;;;1.65;1.43;;;;;;;19.58;39.62;100671.61;;;;-47
2020/03/10 00:46:15;;;;;;;1.75;1.41;;;;;;;19.57;39.64;100667.53;;;;-47
2020/03/10 00:49:15;;;;;;;1.70;1.50;;;;;;;19.55;39.56;100662.52;;;;-47
2020/03/10 00:52:15;;;;;;;1.65;1.55;;;;;;;19.54;39.57;100675.77;;;;-47
2020/03/10 00:55:15;;;;;;;1.63;1.49;;;;;;;19.53;39.59;100672.38;;;;-47
2020/03/10 00:58:15;;;;;;;1.48;1.38;;;;;;;19.51;39.56;100670.14;;;;-47
2020/03/10 01:01:15;;;;;;;1.62;1.51;;;;;;;19.51;39.64;100659.54;;;;-47
2020/03/10 01:04:14;;;;;;;1.71;1.51;;;;;;;19.49;39.62;100651.34;;;;-47
2020/03/10 01:07:14;;;;;;;1.69;1.52;;;;;;;19.48;39.66;100638.30;;;;-46
2020/03/10 01:10:14;;;;;;;1.96;1.47;;;;;;;19.47;39.63;100623.88;;;;-47
2020/03/10 01:13:15;;;;;;;1.51;1.36;;;;;;;19.45;39.69;100617.49;;;;-47
2020/03/10 01:16:15;;;;;;;1.59;1.45;;;;;;;19.44;39.59;100598.02;;;;-47
2020/03/10 01:19:15;;;;;;;1.63;1.35;;;;;;;19.42;39.69;100576.88;;;;-47
2020/03/10 01:22:21;;;;;;;1.50;1.40;;;;;;;19.41;39.64;100568.29;;;;-47
2020/03/10 01:25:14;;;;;;;1.45;1.35;;;;;;;19.40;39.72;100547.25;;;;-47
2020/03/10 01:28:14;;;;;;;1.63;1.40;;;;;;;19.38;39.69;100540.85;;;;-47
2020/03/10 01:31:14;;;;;;;2.13;1.51;;;;;;;19.37;39.70;100532.58;;;;-47
2020/03/10 01:34:14;;;;;;;1.53;1.43;;;;;;;19.35;39.69;100525.75;;;;-47
2020/03/10 01:37:15;;;;;;;1.53;1.35;;;;;;;19.34;39.70;100520.22;;;;-47
2020/03/10 01:40:15;;;;;;;1.71;1.43;;;;;;;19.33;39.65;100521.67;;;;-47
2020/03/10 01:43:15;;;;;;;1.63;1.50;;;;;;;19.33;39.74;100523.08;;;;-48
2020/03/10 01:46:14;;;;;;;1.49;1.39;;;;;;;19.31;39.74;100504.23;;;;-46
2020/03/10 01:49:14;;;;;;;1.65;1.52;;;;;;;19.30;39.73;100505.52;;;;-47
2020/03/10 01:52:14;;;;;;;1.79;1.37;;;;;;;19.29;39.74;100509.33;;;;-47
2020/03/10 01:55:14;;;;;;;1.64;1.35;;;;;;;19.28;39.72;100501.98;;;;-47
2020/03/10 01:58:14;;;;;;;1.71;1.49;;;;;;;19.26;39.79;100482.00;;;;-47
2020/03/10 02:01:15;;;;;;;2.70;1.52;;;;;;;19.25;39.81;100476.66;;;;-47
2020/03/10 02:04:15;;;;;;;1.49;1.39;;;;;;;19.24;39.78;100481.91;;;;-46
2020/03/10 02:07:14;;;;;;;1.52;1.34;;;;;;;19.23;39.79;100477.74;;;;-47
2020/03/10 02:10:14;;;;;;;1.73;1.42;;;;;;;19.23;39.78;100486.78;;;;-46
2020/03/10 02:13:15;;;;;;;1.37;1.27;;;;;;;19.21;39.82;100484.69;;;;-49
2020/03/10 02:16:14;;;;;;;1.51;1.39;;;;;;;19.21;39.81;100479.33;;;;-47
2020/03/10 02:19:15;;;;;;;1.56;1.46;;;;;;;19.19;39.83;100491.23;;;;-46
2020/03/10 02:22:15;;;;;;;1.67;1.50;;;;;;;19.19;39.83;100511.55;;;;-47
2020/03/10 02:25:15;;;;;;;1.51;1.40;;;;;;;19.17;39.82;100506.70;;;;-47
2020/03/10 02:28:14;;;;;;;1.47;1.37;;;;;;;19.17;39.85;100508.66;;;;-47
2020/03/10 02:31:15;;;;;;;1.79;1.58;;;;;;;19.16;39.85;100494.83;;;;-47
2020/03/10 02:34:14;;;;;;;1.48;1.38;;;;;;;19.15;39.87;100474.70;;;;-48
2020/03/10 02:37:15;;;;;;;1.50;1.40;;;;;;;19.14;39.87;100464.70;;;;-47
2020/03/10 02:40:14;;;;;;;1.43;1.33;;;;;;;19.13;39.86;100466.67;;;;-47
2020/03/10 02:43:15;;;;;;;1.64;1.43;;;;;;;19.11;39.84;100461.80;;;;-47
2020/03/10 02:46:15;;;;;;;1.65;1.50;;;;;;;19.11;39.89;100479.00;;;;-46
2020/03/10 02:49:14;;;;;;;1.66;1.49;;;;;;;19.09;39.89;100482.52;;;;-47
2020/03/10 02:52:14;;;;;;;1.63;1.39;;;;;;;19.09;39.91;100498.83;;;;-47
2020/03/10 02:55:14;;;;;;;1.85;1.45;;;;;;;19.07;39.91;100505.02;;;;-47
2020/03/10 02:58:14;;;;;;;1.41;1.31;;;;;;;19.08;39.88;100510.42;;;;-47
2020/03/10 03:01:14;;;;;;;1.63;1.36;;;;;;;19.06;39.91;100509.73;;;;-47
2020/03/10 03:04:15;;;;;;;1.51;1.41;;;;;;;19.05;39.92;100510.95;;;;-47
2020/03/10 03:07:15;;;;;;;1.46;1.35;;;;;;;19.04;39.91;100511.85;;;;-47
2020/03/10 03:10:14;;;;;;;1.41;1.31;;;;;;;19.03;39.85;100505.45;;;;-48
2020/03/10 03:13:14;;;;;;;1.92;1.65;;;;;;;19.03;39.90;100487.26;;;;-47
2020/03/10 03:16:14;;;;;;;1.43;1.33;;;;;;;19.02;39.86;100484.87;;;;-48
2020/03/10 03:19:14;;;;;;;1.44;1.34;;;;;;;19.00;39.88;100485.72;;;;-47
2020/03/10 03:22:14;;;;;;;1.45;1.33;;;;;;;19.00;39.95;100493.15;;;;-49
2020/03/10 03:25:15;;;;;;;1.63;1.52;;;;;;;18.99;39.93;100506.25;;;;-47
2020/03/10 03:28:14;;;;;;;1.49;1.37;;;;;;;18.99;39.93;100513.78;;;;-47
2020/03/10 03:31:14;;;;;;;1.51;1.38;;;;;;;18.98;39.87;100515.41;;;;-47
2020/03/10 03:34:14;;;;;;;1.79;1.50;;;;;;;18.97;39.92;100509.85;;;;-47
2020/03/10 03:37:14;;;;;;;1.46;1.36;;;;;;;18.96;40.00;100500.98;;;;-47
2020/03/10 03:40:14;;;;;;;1.41;1.31;;;;;;;18.95;39.97;100488.50;;;;-46
2020/03/10 03:43:15;;;;;;;1.41;1.30;;;;;;;18.94;39.94;100476.00;;;;-47
2020/03/10 03:46:15;;;;;;;1.45;1.35;;;;;;;18.94;39.97;100475.16;;;;-47
2020/03/10 03:49:14;;;;;;;1.71;1.35;;;;;;;18.93;39.95;100466.25;;;;-47
2020/03/10 03:52:14;;;;;;;1.49;1.39;;;;;;;18.92;39.97;100454.28;;;;-47
2020/03/10 03:55:14;;;;;;;1.61;1.40;;;;;;;18.91;39.95;100443.30;;;;-47
2020/03/10 03:58:14;;;;;;;1.69;1.30;;;;;;;18.92;39.96;100441.06;;;;-47
2020/03/10 04:01:14;;;;;;;1.58;1.40;;;;;;;18.91;39.97;100426.45;;;;-47
2020/03/10 04:04:15;;;;;;;1.64;1.40;;;;;;;18.90;39.98;100413.30;;;;-47
2020/03/10 04:07:15;;;;;;;1.47;1.37;;;;;;;18.91;40.01;100397.61;;;;-47
2020/03/10 04:10:14;;;;;;;1.51;1.34;;;;;;;18.90;40.00;100388.70;;;;-48
2020/03/10 04:13:14;;;;;;;1.46;1.33;;;;;;;18.92;40.00;100376.80;;;;-47
2020/03/10 04:16:14;;;;;;;1.37;1.27;;;;;;;18.93;40.00;100367.74;;;;-47
2020/03/10 04:19:14;;;;;;;1.37;1.27;;;;;;;18.95;39.98;100373.69;;;;-47
2020/03/10 04:22:14;;;;;;;1.40;1.30;;;;;;;18.97;40.01;100381.48;;;;-47
2020/03/10 04:25:15;;;;;;;1.43;1.32;;;;;;;19.00;40.00;100375.16;;;;-47
2020/03/10 04:28:19;;;;;;;1.36;1.26;;;;;;;19.03;39.98;100375.30;;;;-47
2020/03/10 04:31:19;;;;;;;1.51;1.31;;;;;;;19.07;39.97;100372.28;;;;-48
2020/03/10 04:34:15;;;;;;;1.46;1.35;;;;;;;19.11;40.04;100360.59;;;;-47
2020/03/10 04:37:14;;;;;;;1.40;1.30;;;;;;;19.14;39.96;100350.14;;;;-48
2020/03/10 04:40:14;;;;;;;1.39;1.29;;;;;;;19.20;39.96;100345.19;;;;-47
2020/03/10 04:43:14;;;;;;;1.56;1.25;;;;;;;19.22;39.96;100343.42;;;;-47
2020/03/10 04:46:14;;;;;;;1.39;1.29;;;;;;;19.26;40.10;100340.52;;;;-47
2020/03/10 04:49:14;;;;;;;1.40;1.30;;;;;;;19.30;40.09;100347.12;;;;-47
2020/03/10 04:52:14;;;;;;;1.35;1.25;;;;;;;19.33;40.07;100346.75;;;;-47
2020/03/10 04:55:14;;;;;;;1.60;1.39;;;;;;;19.37;40.07;100341.70;;;;-48
2020/03/10 04:58:14;;;;;;;1.24;1.14;;;;;;;19.41;40.14;100343.98;;;;-47
2020/03/10 05:01:15;;;;;;;1.40;1.30;;;;;;;19.45;39.98;100349.02;;;;-47
2020/03/10 05:04:15;;;;;;;1.40;1.30;;;;;;;19.49;40.09;100344.05;;;;-47
2020/03/10 05:07:15;;;;;;;1.33;1.23;;;;;;;19.52;40.08;100327.70;;;;-47
2020/03/10 05:10:15;;;;;;;1.45;1.35;;;;;;;19.55;40.05;100315.16;;;;-46
2020/03/10 05:13:14;;;;;;;1.39;1.29;;;;;;;19.58;40.10;100308.35;;;;-47
2020/03/10 05:16:14;;;;;;;1.30;1.20;;;;;;;19.60;40.06;100315.64;;;;-47
2020/03/10 05:19:14;;;;;;;1.40;1.30;;;;;;;19.64;40.09;100317.28;;;;-49
2020/03/10 05:22:14;;;;;;;1.42;1.32;;;;;;;19.65;39.99;100300.91;;;;-47
2020/03/10 05:25:14;;;;;;;1.30;1.20;;;;;;;19.67;40.05;100293.55;;;;-47
2020/03/10 05:28:15;;;;;;;1.39;1.25;;;;;;;19.69;39.96;100279.02;;;;-46
2020/03/10 05:31:14;;;;;;;1.67;1.33;;;;;;;19.70;40.01;100279.36;;;;-47
2020/03/10 05:34:14;;;;;;;1.40;1.30;;;;;;;19.72;39.96;100276.89;;;;-47
2020/03/10 05:37:14;;;;;;;1.41;1.21;;;;;;;19.73;39.93;100282.06;;;;-48
2020/03/10 05:40:14;;;;;;;1.38;1.25;;;;;;;19.75;39.95;100277.45;;;;-48
2020/03/10 05:43:14;;;;;;;1.30;1.20;;;;;;;19.77;39.90;100278.70;;;;-48
2020/03/10 05:46:15;;;;;;;1.72;1.29;;;;;;;19.79;39.91;100273.33;;;;-46
2020/03/10 05:49:15;;;;;;;1.30;1.20;;;;;;;19.79;39.88;100268.90;;;;-47
2020/03/10 05:52:14;;;;;;;1.41;1.21;;;;;;;19.80;39.87;100261.47;;;;-47
2020/03/10 05:55:14;;;;;;;1.51;1.30;;;;;;;19.81;39.82;100249.94;;;;-47
2020/03/10 05:58:14;;;;;;;1.51;1.30;;;;;;;19.82;39.86;100239.59;;;;-47
2020/03/10 06:01:14;;;;;;;1.72;1.33;;;;;;;19.82;39.81;100230.81;;;;-47
2020/03/10 06:04:14;;;;;;;1.45;1.32;;;;;;;19.83;39.79;100220.53;;;;-47
2020/03/10 06:07:14;;;;;;;1.57;1.20;;;;;;;19.86;39.77;100214.78;;;;-47
2020/03/10 06:10:15;;;;;;;1.39;1.29;;;;;;;19.87;39.79;100226.55;;;;-47
2020/03/10 06:13:14;;;;;;;1.44;1.21;;;;;;;19.89;39.75;100227.97;;;;-47
2020/03/10 06:16:14;;;;;;;1.37;1.27;;;;;;;19.91;39.79;100226.71;;;;-47
2020/03/10 06:19:14;;;;;;;1.29;1.20;;;;;;;19.92;39.70;100224.23;;;;-47
2020/03/10 06:22:14;;;;;;;1.32;1.22;;;;;;;19.94;39.74;100225.22;;;;-47
2020/03/10 06:25:14;;;;;;;1.45;1.27;;;;;;;19.95;39.79;100222.07;;;;-47
2020/03/10 06:28:14;;;;;;;1.37;1.27;;;;;;;19.97;39.75;100223.32;;;;-47
2020/03/10 06:31:15;;;;;;;1.53;1.26;;;;;;;19.97;39.70;100216.89;;;;-47
2020/03/10 06:34:14;;;;;;;1.57;1.25;;;;;;;20.00;39.71;100201.18;;;;-47
2020/03/10 06:37:14;;;;;;;1.46;1.30;;;;;;;20.00;39.70;100198.23;;;;-47
2020/03/10 06:40:14;;;;;;;1.35;1.25;;;;;;;20.03;39.65;100191.13;;;;-49
2020/03/10 06:43:14;;;;;;;1.44;1.30;;;;;;;20.04;39.60;100172.00;;;;-47
2020/03/10 06:46:14;;;;;;;1.33;1.23;;;;;;;20.06;39.62;100174.25;;;;-47
2020/03/10 06:49:14;;;;;;;1.22;1.12;;;;;;;20.07;39.67;100175.06;;;;-47
2020/03/10 06:52:14;;;;;;;1.41;1.31;;;;;;;20.10;39.59;100168.59;;;;-47
2020/03/10 06:55:14;;;;;;;1.88;1.38;;;;;;;20.11;39.62;100176.45;;;;-56
2020/03/10 06:58:14;;;;;;;1.37;1.22;;;;;;;20.13;39.56;100163.78;;;;-56
2020/03/10 07:01:14;;;;;;;1.34;1.20;;;;;;;20.16;39.52;100163.96;;;;-56
2020/03/10 07:04:14;;;;;;;1.35;1.22;;;;;;;20.17;39.55;100168.59;;;;-55
2020/03/10 07:07:14;;;;;;;1.59;1.30;;;;;;;20.19;39.53;100175.38;;;;-56
2020/03/10 07:10:15;;;;;;;1.04;1.00;;;;;;;20.19;39.53;100173.56;;;;-56
2020/03/10 07:13:15;;;;;;;1.45;1.20;;;;;;;20.22;39.57;100166.09;;;;-55
2020/03/10 07:16:14;;;;;;;1.21;1.11;;;;;;;20.23;39.51;100151.14;;;;-55
2020/03/10 07:19:14;;;;;;;1.47;1.23;;;;;;;20.24;39.52;100144.87;;;;-55
2020/03/10 07:23:14;;;;;;;1.39;1.29;;;;;;;20.25;39.49;100144.84;;;;-55
2020/03/10 07:26:14;;;;;;;1.33;1.20;;;;;;;20.26;39.51;100162.25;;;;-55
2020/03/10 07:29:14;;;;;;;1.41;1.29;;;;;;;20.28;39.40;100162.95;;;;-56
2020/03/10 07:32:14;;;;;;;1.64;1.20;;;;;;;20.30;39.39;100165.81;;;;-56
2020/03/10 07:35:14;;;;;;;1.28;1.18;;;;;;;20.30;39.49;100167.05;;;;-55
2020/03/10 07:38:14;;;;;;;1.39;1.27;;;;;;;20.30;39.43;100157.03;;;;-51
2020/03/10 07:41:14;;;;;;;1.33;1.23;;;;;;;20.33;39.41;100158.05;;;;-51
2020/03/10 07:44:14;;;;;;;1.26;1.16;;;;;;;20.34;39.42;100147.17;;;;-51
2020/03/10 07:47:14;;;;;;;1.40;1.30;;;;;;;20.34;39.38;100159.83;;;;-51
2020/03/10 07:50:14;;;;;;;1.30;1.20;;;;;;;20.36;39.42;100168.55;;;;-51
2020/03/10 07:53:14;;;;;;;1.39;1.25;;;;;;;20.39;39.34;100167.48;;;;-50
2020/03/10 07:56:14;;;;;;;1.47;1.23;;;;;;;20.39;39.36;100163.96;;;;-51
2020/03/10 07:59:14;;;;;;;2.31;1.26;;;;;;;20.41;39.35;100159.47;;;;-50
2020/03/10 08:02:14;;;;;;;1.35;1.20;;;;;;;20.41;39.39;100155.71;;;;-50
2020/03/10 08:05:14;;;;;;;1.33;1.23;;;;;;;20.43;39.34;100158.37;;;;-51
2020/03/10 08:08:14;;;;;;;1.15;1.09;;;;;;;20.46;39.35;100166.97;;;;-51
2020/03/10 08:11:14;;;;;;;1.43;1.22;;;;;;;20.47;39.30;100160.73;;;;-51
2020/03/10 08:14:14;;;;;;;1.33;1.20;;;;;;;20.48;39.26;100161.16;;;;-51
2020/03/10 08:17:14;;;;;;;1.26;1.11;;;;;;;20.49;39.19;100158.98;;;;-50
2020/03/10 08:20:14;;;;;;;1.59;1.35;;;;;;;20.50;39.22;100160.62;;;;-50
2020/03/10 08:23:14;;;;;;;1.72;1.25;;;;;;;20.50;39.23;100153.81;;;;-51
2020/03/10 08:26:14;;;;;;;1.49;1.37;;;;;;;20.49;39.21;100151.23;;;;-56
2020/03/10 08:29:14;;;;;;;1.45;1.29;;;;;;;20.50;39.13;100159.56;;;;-56
2020/03/10 08:32:15;;;;;;;1.85;1.30;;;;;;;20.49;39.19;100152.58;;;;-56
2020/03/10 08:35:14;;;;;;;1.36;1.19;;;;;;;20.50;39.15;100160.53;;;;-56
2020/03/10 08:38:14;;;;;;;1.86;1.32;;;;;;;20.49;39.16;100164.16;;;;-56
2020/03/10 08:41:14;;;;;;;1.30;1.20;;;;;;;20.49;39.10;100152.04;;;;-55
2020/03/10 08:44:14;;;;;;;1.31;1.20;;;;;;;20.49;39.08;100140.33;;;;-56
2020/03/10 08:47:14;;;;;;;1.18;1.08;;;;;;;20.49;39.08;100146.77;;;;-55
2020/03/10 08:50:14;;;;;;;1.25;1.15;;;;;;;20.49;39.08;100154.66;;;;-56
2020/03/10 08:53:14;;;;;;;1.27;1.17;;;;;;;20.49;39.08;100155.73;;;;-56
2020/03/10 08:56:14;;;;;;;1.27;1.17;;;;;;;20.49;39.10;100147.27;;;;-55
2020/03/10 08:59:14;;;;;;;1.30;1.20;;;;;;;20.50;39.09;100150.27;;;;-56
2020/03/10 09:02:14;;;;;;;1.33;1.14;;;;;;;20.51;39.12;100152.05;;;;-55
2020/03/10 09:05:14;;;;;;;1.59;1.24;;;;;;;20.52;39.08;100151.17;;;;-57
2020/03/10 09:08:14;;;;;;;1.26;1.16;;;;;;;20.52;39.07;100155.44;;;;-56
2020/03/10 09:11:15;;;;;;;1.22;1.11;;;;;;;20.52;39.05;100163.98;;;;-57
2020/03/10 09:14:14;;;;;;;1.37;1.20;;;;;;;20.52;39.09;100164.06;;;;-55
2020/03/10 09:17:14;;;;;;;1.18;1.08;;;;;;;20.51;39.06;100158.19;;;;-55
2020/03/10 09:20:14;;;;;;;1.35;1.22;;;;;;;20.53;39.02;100162.41;;;;-55
2020/03/10 09:23:14;;;;;;;1.67;1.29;;;;;;;20.53;39.02;100166.44;;;;-62
2020/03/10 09:26:14;;;;;;;1.81;1.13;;;;;;;20.54;39.28;100155.67;;;;-57
2020/03/10 09:29:14;;;;;;;1.48;1.15;;;;;;;20.56;39.70;100154.23;;;;-58
2020/03/10 09:32:14;;;;;;;1.74;1.26;;;;;;;20.57;39.88;100151.05;;;;-59
2020/03/10 09:35:14;;;;;;;4.53;1.27;;;;;;;20.58;39.93;100141.79;;;;-56
2020/03/10 09:38:14;;;;;;;2.50;1.31;;;;;;;20.58;39.77;100141.05;;;;-58
2020/03/10 09:41:14;;;;;;;2.81;1.33;;;;;;;20.60;39.56;100137.49;;;;-55
2020/03/10 09:44:14;;;;;;;1.73;1.12;;;;;;;20.59;39.55;100147.53;;;;-56
2020/03/10 09:47:14;;;;;;;1.98;1.20;;;;;;;20.61;39.77;100144.24;;;;-54
2020/03/10 09:50:14;;;;;;;2.38;1.25;;;;;;;20.64;39.87;100139.72;;;;-56
2020/03/10 09:53:14;;;;;;;2.01;1.11;;;;;;;20.65;39.55;100147.12;;;;-54
2020/03/10 09:56:14;;;;;;;1.29;1.08;;;;;;;20.66;39.31;100150.13;;;;-54
2020/03/10 09:59:14;;;;;;;2.85;1.08;;;;;;;20.66;39.37;100151.12;;;;-55
2020/03/10 10:02:14;;;;;;;1.27;1.12;;;;;;;20.65;39.05;100146.97;;;;-54
2020/03/10 10:05:14;;;;;;;4.54;1.20;;;;;;;20.64;39.35;100145.02;;;;-56
2020/03/10 10:08:14;;;;;;;1.93;1.31;;;;;;;20.63;39.24;100144.14;;;;-57
2020/03/10 10:11:14;;;;;;;2.21;1.28;;;;;;;20.61;38.73;100150.05;;;;-64
2020/03/10 10:14:14;;;;;;;2.98;1.23;;;;;;;20.61;39.02;100143.73;;;;-57
2020/03/10 10:17:14;;;;;;;1.25;1.10;;;;;;;20.60;38.72;100145.37;;;;-59
2020/03/10 10:20:14;;;;;;;1.85;1.33;;;;;;;20.60;38.73;100154.04;;;;-62
2020/03/10 10:23:14;;;;;;;4.27;1.17;;;;;;;20.59;38.92;100160.05;;;;-54
2020/03/10 10:26:14;;;;;;;2.48;1.31;;;;;;;20.60;38.79;100162.66;;;;-61
2020/03/10 10:29:14;;;;;;;1.44;1.30;;;;;;;20.60;38.83;100157.56;;;;-58
2020/03/10 10:32:14;;;;;;;5.19;1.25;;;;;;;20.61;39.37;100154.75;;;;-59
2020/03/10 10:35:15;;;;;;;1.61;1.16;;;;;;;20.61;39.27;100154.64;;;;-55
2020/03/10 10:38:14;;;;;;;2.23;1.32;;;;;;;20.62;38.95;100158.03;;;;-53
2020/03/10 10:41:14;;;;;;;1.23;1.10;;;;;;;20.64;39.25;100160.95;;;;-52
2020/03/10 10:44:14;;;;;;;1.23;1.13;;;;;;;20.64;39.32;100153.41;;;;-59
2020/03/10 10:47:14;;;;;;;2.11;1.37;;;;;;;20.66;39.28;100152.30;;;;-63
2020/03/10 10:50:14;;;;;;;1.39;1.20;;;;;;;20.68;39.38;100158.08;;;;-52
2020/03/10 10:53:14;;;;;;;2.11;1.21;;;;;;;20.70;39.44;100156.13;;;;-58
2020/03/10 10:56:14;;;;;;;2.95;1.27;;;;;;;20.70;39.23;100154.95;;;;-62
2020/03/10 10:59:14;;;;;;;3.63;1.25;;;;;;;20.70;38.99;100145.29;;;;-62
2020/03/10 11:02:14;;;;;;;2.13;1.18;;;;;;;20.71;39.04;100138.78;;;;-64
2020/03/10 11:05:14;;;;;;;1.53;1.17;;;;;;;20.72;39.22;100143.52;;;;-57
2020/03/10 11:08:14;;;;;;;2.29;1.21;;;;;;;20.73;39.42;100135.66;;;;-57
2020/03/10 11:11:14;;;;;;;1.51;1.20;;;;;;;20.74;39.36;100141.30;;;;-55
2020/03/10 11:14:14;;;;;;;1.71;1.20;;;;;;;20.75;39.52;100134.32;;;;-55
2020/03/10 11:17:14;;;;;;;2.00;1.25;;;;;;;20.79;39.17;100133.08;;;;-56
2020/03/10 11:20:14;;;;;;;2.07;1.20;;;;;;;20.80;39.20;100134.52;;;;-57
2020/03/10 11:23:14;;;;;;;1.76;0.99;;;;;;;20.81;39.05;100133.78;;;;-55
2020/03/10 11:26:14;;;;;;;1.18;1.09;;;;;;;20.81;38.87;100123.45;;;;-57
2020/03/10 11:29:14;;;;;;;2.04;1.17;;;;;;;20.82;38.86;100123.58;;;;-55
2020/03/10 11:32:14;;;;;;;1.66;1.14;;;;;;;20.82;38.87;100120.56;;;;-56
2020/03/10 11:35:14;;;;;;;1.38;1.14;;;;;;;20.84;38.82;100119.62;;;;-55
2020/03/10 11:38:14;;;;;;;1.33;1.10;;;;;;;20.84;38.75;100119.55;;;;-58
2020/03/10 11:41:14;;;;;;;2.05;1.19;;;;;;;20.86;38.88;100116.91;;;;-56
2020/03/10 11:44:14;;;;;;;1.93;1.10;;;;;;;20.87;38.80;100115.86;;;;-55
2020/03/10 11:47:14;;;;;;;0.99;0.97;;;;;;;20.87;38.74;100117.94;;;;-55
2020/03/10 11:50:14;;;;;;;1.81;1.07;;;;;;;20.88;38.71;100113.52;;;;-55
2020/03/10 11:53:14;;;;;;;1.24;1.13;;;;;;;20.88;38.67;100111.27;;;;-56
2020/03/10 11:56:14;;;;;;;1.93;1.20;;;;;;;20.89;38.74;100107.33;;;;-57
2020/03/10 11:59:14;;;;;;;1.69;0.97;;;;;;;20.89;38.71;100105.15;;;;-57
2020/03/10 12:02:14;;;;;;;1.11;1.01;;;;;;;20.89;38.67;100104.91;;;;-49
2020/03/10 12:05:14;;;;;;;1.11;0.99;;;;;;;20.89;38.74;100111.30;;;;-48
2020/03/10 12:08:14;;;;;;;1.25;1.10;;;;;;;20.90;38.67;100103.70;;;;-51
2020/03/10 12:11:14;;;;;;;0.90;0.90;;;;;;;20.90;38.71;100103.10;;;;-52
2020/03/10 12:14:14;;;;;;;0.96;0.92;;;;;;;20.90;38.73;100103.20;;;;-52
2020/03/10 12:17:14;;;;;;;1.38;1.00;;;;;;;20.91;38.60;100098.37;;;;-52
2020/03/10 12:20:14;;;;;;;1.27;1.01;;;;;;;20.90;38.61;100094.94;;;;-52
2020/03/10 12:23:14;;;;;;;1.21;1.11;;;;;;;20.90;38.61;100091.86;;;;-52
2020/03/10 12:26:14;;;;;;;1.07;0.99;;;;;;;20.90;38.53;100082.80;;;;-52
2020/03/10 12:29:14;;;;;;;9.09;1.04;;;;;;;20.91;38.56;100085.17;;;;-52
2020/03/10 12:32:14;;;;;;;1.12;1.02;;;;;;;20.91;38.56;100088.97;;;;-52
2020/03/10 12:35:14;;;;;;;1.07;1.01;;;;;;;20.91;38.48;100080.70;;;;-51
2020/03/10 12:38:14;;;;;;;1.03;0.99;;;;;;;20.91;38.63;100074.09;;;;-51
2020/03/10 12:41:14;;;;;;;1.10;1.00;;;;;;;20.92;38.55;100068.48;;;;-52
2020/03/10 12:44:14;;;;;;;0.92;0.87;;;;;;;20.92;38.61;100070.27;;;;-51
2020/03/10 12:47:14;;;;;;;0.99;0.99;;;;;;;20.92;38.59;100065.13;;;;-52
2020/03/10 12:50:14;;;;;;;1.71;1.11;;;;;;;20.93;38.63;100060.46;;;;-52
2020/03/10 12:53:14;;;;;;;1.00;0.95;;;;;;;20.92;38.63;100052.91;;;;-55
2020/03/10 12:56:14;;;;;;;1.37;1.21;;;;;;;20.90;38.80;100053.69;;;;-59
2020/03/10 12:59:14;;;;;;;2.13;1.01;;;;;;;20.90;39.10;100044.75;;;;-61
2020/03/10 13:02:14;;;;;;;3.93;1.03;;;;;;;20.85;38.82;100049.26;;;;-57
2020/03/10 13:05:14;;;;;;;6.95;1.30;;;;;;;20.82;39.28;100041.95;;;;-46
2020/03/10 13:08:14;;;;;;;2.22;1.10;;;;;;;20.81;39.11;100042.59;;;;-50
2020/03/10 13:11:14;;;;;;;2.27;1.00;;;;;;;20.81;39.54;100044.06;;;;-59
2020/03/10 13:14:14;;;;;;;1.23;1.00;;;;;;;20.79;39.42;100044.91;;;;-58
2020/03/10 13:17:14;;;;;;;1.18;1.00;;;;;;;20.77;39.39;100036.95;;;;-55
2020/03/10 13:20:14;;;;;;;1.53;1.10;;;;;;;20.77;39.54;100030.91;;;;-51
2020/03/10 13:23:14;;;;;;;1.83;1.19;;;;;;;20.84;39.65;100039.22;;;;-59
2020/03/10 13:26:14;;;;;;;1.99;1.20;;;;;;;20.88;39.41;100042.04;;;;-58
2020/03/10 13:29:14;;;;;;;1.95;1.05;;;;;;;20.91;39.78;100024.58;;;;-58
2020/03/10 13:32:14;;;;;;;1.52;0.94;;;;;;;20.94;39.67;100026.52;;;;-60
2020/03/10 13:35:14;;;;;;;1.22;1.12;;;;;;;20.98;39.88;100025.30;;;;-57
2020/03/10 13:38:14;;;;;;;1.23;1.09;;;;;;;20.99;39.81;100018.11;;;;-48
2020/03/10 13:41:14;;;;;;;1.59;1.10;;;;;;;21.00;39.71;100024.52;;;;-49
2020/03/10 13:44:14;;;;;;;1.25;0.94;;;;;;;21.03;40.00;100011.36;;;;-50
2020/03/10 13:47:14;;;;;;;1.80;1.00;;;;;;;21.04;39.91;100012.19;;;;-50
2020/03/10 13:50:14;;;;;;;2.09;0.90;;;;;;;21.07;40.02;100010.03;;;;-58
2020/03/10 13:53:14;;;;;;;1.24;0.89;;;;;;;21.08;39.71;100007.91;;;;-54
2020/03/10 13:56:14;;;;;;;2.27;0.99;;;;;;;21.10;39.80;100006.50;;;;-53
2020/03/10 13:59:14;;;;;;;5.79;1.10;;;;;;;21.11;40.14;100012.84;;;;-54
2020/03/10 14:02:14;;;;;;;3.61;1.06;;;;;;;21.08;39.61;100015.77;;;;-53
2020/03/10 14:05:14;;;;;;;3.26;1.21;;;;;;;21.11;39.81;100029.80;;;;-58
2020/03/10 14:08:14;;;;;;;1.18;1.08;;;;;;;21.12;39.67;100028.39;;;;-52
2020/03/10 14:11:14;;;;;;;3.49;1.34;;;;;;;21.14;39.85;100019.22;;;;-51
2020/03/10 14:14:14;;;;;;;1.13;1.09;;;;;;;21.15;39.96;100019.69;;;;-50
2020/03/10 14:17:14;;;;;;;1.28;1.03;;;;;;;21.17;39.78;100024.95;;;;-52
2020/03/10 14:20:14;;;;;;;1.54;0.99;;;;;;;21.17;39.78;100027.70;;;;-52
2020/03/10 14:23:14;;;;;;;2.67;1.07;;;;;;;21.18;39.82;100021.52;;;;-51
2020/03/10 14:26:14;;;;;;;2.96;0.95;;;;;;;21.18;39.84;100031.43;;;;-49
2020/03/10 14:29:14;;;;;;;2.61;1.11;;;;;;;21.16;39.60;100038.52;;;;-51
2020/03/10 14:32:14;;;;;;;2.53;1.25;;;;;;;21.17;39.91;100034.19;;;;-53
2020/03/10 14:35:14;;;;;;;3.44;1.07;;;;;;;21.18;39.39;100042.01;;;;-54
2020/03/10 14:38:14;;;;;;;4.08;1.06;;;;;;;21.17;39.41;100044.94;;;;-53
2020/03/10 14:41:14;;;;;;;4.66;1.10;;;;;;;21.17;39.29;100036.87;;;;-53
2020/03/10 14:44:14;;;;;;;3.05;1.17;;;;;;;21.17;39.17;100039.83;;;;-53
2020/03/10 14:47:14;;;;;;;1.68;1.09;;;;;;;21.16;39.15;100043.22;;;;-53
2020/03/10 14:50:14;;;;;;;1.71;1.11;;;;;;;21.17;39.07;100045.44;;;;-53
2020/03/10 14:53:14;;;;;;;1.13;1.03;;;;;;;21.17;39.03;100046.38;;;;-53
2020/03/10 14:56:14;;;;;;;3.25;1.20;;;;;;;21.16;38.98;100042.72;;;;-53
2020/03/10 14:59:14;;;;;;;1.91;1.10;;;;;;;21.17;38.98;100036.10;;;;-54
2020/03/10 15:02:14;;;;;;;2.01;0.89;;;;;;;21.16;38.92;100020.80;;;;-53
2020/03/10 15:05:14;;;;;;;1.83;1.09;;;;;;;21.18;38.89;100015.75;;;;-53
2020/03/10 15:08:14;;;;;;;1.41;0.87;;;;;;;21.18;38.87;100020.52;;;;-53
2020/03/10 15:11:14;;;;;;;1.45;1.01;;;;;;;21.18;38.93;100025.15;;;;-53
2020/03/10 15:14:14;;;;;;;1.01;0.93;;;;;;;21.18;38.84;100026.09;;;;-54
2020/03/10 15:20:14;;;;;;;1.89;1.04;;;;;;;21.19;38.86;100030.28;;;;-49
2020/03/10 15:23:14;;;;;;;1.39;1.29;;;;;;;21.20;38.82;100030.92;;;;-50
2020/03/10 15:26:14;;;;;;;1.35;1.00;;;;;;;21.20;38.83;100041.33;;;;-49
2020/03/10 15:29:14;;;;;;;1.07;0.99;;;;;;;21.21;38.81;100044.55;;;;-49
2020/03/10 15:32:14;;;;;;;1.04;1.01;;;;;;;21.20;38.79;100035.95;;;;-49
2020/03/10 15:35:14;;;;;;;1.31;0.84;;;;;;;21.21;38.75;100039.41;;;;-49
2020/03/10 15:38:14;;;;;;;1.89;0.90;;;;;;;21.20;38.76;100039.98;;;;-48
2020/03/10 15:41:14;;;;;;;1.25;1.03;;;;;;;21.21;38.79;100039.02;;;;-49
2020/03/10 15:44:14;;;;;;;1.51;0.92;;;;;;;21.20;38.75;100031.49;;;;-49
2020/03/10 15:47:14;;;;;;;1.16;1.07;;;;;;;21.17;38.65;100040.57;;;;-49
2020/03/10 15:50:14;;;;;;;1.43;1.03;;;;;;;21.18;38.70;100044.20;;;;-49
2020/03/10 15:53:14;;;;;;;0.99;0.90;;;;;;;21.18;38.75;100049.06;;;;-49
2020/03/10 15:56:14;;;;;;;3.29;0.92;;;;;;;21.17;38.75;100052.22;;;;-49
2020/03/10 15:59:14;;;;;;;1.12;0.99;;;;;;;21.17;38.80;100059.61;;;;-49
2020/03/10 16:02:14;;;;;;;0.95;0.95;;;;;;;21.17;38.81;100057.30;;;;-50
2020/03/10 16:05:14;;;;;;;1.44;1.00;;;;;;;21.10;38.64;100058.08;;;;-49
2020/03/10 16:08:14;;;;;;;3.62;1.00;;;;;;;21.04;38.65;100045.13;;;;-49
2020/03/10 16:11:14;;;;;;;2.09;1.01;;;;;;;21.01;38.85;100054.27;;;;-49
2020/03/10 16:14:14;;;;;;;2.02;1.17;;;;;;;21.00;38.93;100052.66;;;;-49
2020/03/10 16:17:15;;;;;;;4.27;1.10;;;;;;;21.01;39.08;100050.75;;;;-46
2020/03/10 16:20:14;;;;;;;1.09;1.01;;;;;;;21.04;39.28;100058.70;;;;-50
2020/03/10 16:23:14;;;;;;;2.95;1.13;;;;;;;21.07;39.51;100068.73;;;;-46
2020/03/10 16:26:14;;;;;;;2.29;1.10;;;;;;;21.11;39.51;100056.41;;;;-54
2020/03/10 16:29:15;;;;;;;1.18;1.09;;;;;;;21.09;39.45;100059.86;;;;-52
2020/03/10 16:32:14;;;;;;;3.59;1.29;;;;;;;21.13;39.32;100061.84;;;;-51
2020/03/10 16:35:14;;;;;;;1.33;1.02;;;;;;;21.13;39.66;100071.17;;;;-51
2020/03/10 16:38:14;;;;;;;2.73;1.10;;;;;;;21.15;39.56;100072.75;;;;-53
2020/03/10 16:41:14;;;;;;;1.26;1.10;;;;;;;21.18;39.76;100060.82;;;;-53
2020/03/10 16:44:14;;;;;;;1.59;0.96;;;;;;;21.18;39.45;100069.72;;;;-53
2020/03/10 16:47:14;;;;;;;1.24;1.14;;;;;;;21.19;39.63;100070.69;;;;-48